Weavertown, Pennsylvania
Current Conditions -  °F | °C
As of 12:54 AM on Saturday 29 Nov 2014 (Local Time) from KPTW Reporting Station
Clear Clear  
Wind Chill: 22°   Ceiling: Unl
Heat Index: 22°   Visibility: 10mi
Dew Point: 17°   Wind: 0mph
Humidity: 82%   Direction: NA
Pressure: 30.29"   Gusts: NA
Location:  40.2688°N, 75.7411°W
Report Text: KPTW 290554Z AUTO 00000KT 10SM CLR M06/M08 A3029 RMK AO2 SLP258 T10561083 11028 21061 53005
Loading
Personal Weather Stations






























Interactive Weather Map New forecast layout! Learn more

10-Day Weather Forecast

Advertisements
Track Severe Weather on mobile